sensor_id;sensor_type;location;lat;lon;timestamp;pressure;altitude;pressure_sealevel;temperature;humidity
3122;BME280;1571;52.524;14.104;2023-05-23T00:01:13;100686.34;;;13.03;80.08
3122;BME280;1571;52.524;14.104;2023-05-23T00:03:43;100685.06;;;13.09;80.65
3122;BME280;1571;52.524;14.104;2023-05-23T00:06:11;100683.41;;;13.19;80.62
3122;BME280;1571;52.524;14.104;2023-05-23T00:08:40;100682.84;;;13.27;80.88
3122;BME280;1571;52.524;14.104;2023-05-23T00:11:09;100679.97;;;13.30;80.45
3122;BME280;1571;52.524;14.104;2023-05-23T00:13:37;100687.53;;;13.36;80.29
3122;BME280;1571;52.524;14.104;2023-05-23T00:16:05;100677.53;;;13.27;80.48
3122;BME280;1571;52.524;14.104;2023-05-23T00:18:37;100674.91;;;13.14;80.88
3122;BME280;1571;52.524;14.104;2023-05-23T00:21:06;100673.78;;;13.05;81.77
3122;BME280;1571;52.524;14.104;2023-05-23T00:23:35;100674.81;;;13.16;81.31
3122;BME280;1571;52.524;14.104;2023-05-23T00:26:04;100664.19;;;13.03;80.97
3122;BME280;1571;52.524;14.104;2023-05-23T00:28:32;100662.91;;;13.08;81.20
3122;BME280;1571;52.524;14.104;2023-05-23T00:31:00;100666.47;;;12.96;81.95
3122;BME280;1571;52.524;14.104;2023-05-23T00:33:29;100661.81;;;13.11;82.02
3122;BME280;1571;52.524;14.104;2023-05-23T00:36:00;100667.84;;;13.02;82.18
3122;BME280;1571;52.524;14.104;2023-05-23T00:38:28;100659.69;;;13.03;81.88
3122;BME280;1571;52.524;14.104;2023-05-23T00:40:56;100655.84;;;13.07;81.86
3122;BME280;1571;52.524;14.104;2023-05-23T00:43:26;100652.75;;;13.13;81.58
3122;BME280;1571;52.524;14.104;2023-05-23T00:45:55;100655.84;;;13.07;81.84
3122;BME280;1571;52.524;14.104;2023-05-23T00:48:24;100656.09;;;13.04;81.73
3122;BME280;1571;52.524;14.104;2023-05-23T00:50:53;100648.72;;;12.84;82.19
3122;BME280;1571;52.524;14.104;2023-05-23T00:53:23;100641.75;;;12.94;82.73
3122;BME280;1571;52.524;14.104;2023-05-23T00:55:52;100639.75;;;12.85;82.82
3122;BME280;1571;52.524;14.104;2023-05-23T00:58:20;100649.31;;;12.87;83.31
3122;BME280;1571;52.524;14.104;2023-05-23T01:00:48;100650.72;;;12.56;83.79
3122;BME280;1571;52.524;14.104;2023-05-23T01:03:20;100645.84;;;12.50;84.81
3122;BME280;1571;52.524;14.104;2023-05-23T01:05:50;100653.09;;;12.48;85.22
3122;BME280;1571;52.524;14.104;2023-05-23T01:08:19;100648.84;;;12.69;85.13
3122;BME280;1571;52.524;14.104;2023-05-23T01:10:50;100648.09;;;12.80;84.62
3122;BME280;1571;52.524;14.104;2023-05-23T01:13:23;100643.00;;;12.77;84.10
3122;BME280;1571;52.524;14.104;2023-05-23T01:15:59;100644.94;;;12.62;84.70
3122;BME280;1571;52.524;14.104;2023-05-23T01:18:33;100640.94;;;12.57;85.28
3122;BME280;1571;52.524;14.104;2023-05-23T01:21:06;100634.28;;;12.62;85.39
3122;BME280;1571;52.524;14.104;2023-05-23T01:24:00;100631.72;;;12.61;85.07
3122;BME280;1571;52.524;14.104;2023-05-23T01:26:40;100632.81;;;12.58;85.05
3122;BME280;1571;52.524;14.104;2023-05-23T01:29:18;100622.16;;;12.58;85.52
3122;BME280;1571;52.524;14.104;2023-05-23T01:31:52;100616.50;;;12.63;85.02
3122;BME280;1571;52.524;14.104;2023-05-23T01:34:21;100619.50;;;12.58;84.44
3122;BME280;1571;52.524;14.104;2023-05-23T01:36:53;100618.31;;;12.62;84.95
3122;BME280;1571;52.524;14.104;2023-05-23T01:39:22;100615.38;;;12.54;85.28
3122;BME280;1571;52.524;14.104;2023-05-23T01:41:51;100611.50;;;12.58;85.26
3122;BME280;1571;52.524;14.104;2023-05-23T01:44:21;100613.91;;;12.50;85.39
3122;BME280;1571;52.524;14.104;2023-05-23T01:46:50;100605.50;;;12.67;84.27
3122;BME280;1571;52.524;14.104;2023-05-23T01:49:19;100601.50;;;12.86;83.71
3122;BME280;1571;52.524;14.104;2023-05-23T01:51:49;100598.72;;;12.63;84.50
3122;BME280;1571;52.524;14.104;2023-05-23T01:54:17;100601.53;;;12.49;84.85
3122;BME280;1571;52.524;14.104;2023-05-23T01:56:49;100590.84;;;12.62;84.80
3122;BME280;1571;52.524;14.104;2023-05-23T01:59:18;100591.59;;;12.88;83.49
3122;BME280;1571;52.524;14.104;2023-05-23T02:01:48;100584.63;;;13.09;82.07
3122;BME280;1571;52.524;14.104;2023-05-23T02:04:18;100578.84;;;13.16;81.34
3122;BME280;1571;52.524;14.104;2023-05-23T02:06:46;100581.06;;;13.22;80.52
3122;BME280;1571;52.524;14.104;2023-05-23T02:09:14;100577.66;;;13.20;80.54
3122;BME280;1571;52.524;14.104;2023-05-23T02:11:44;100583.72;;;13.22;80.11
3122;BME280;1571;52.524;14.104;2023-05-23T02:14:12;100587.19;;;13.11;79.89
3122;BME280;1571;52.524;14.104;2023-05-23T02:16:41;100590.38;;;12.92;82.08
3122;BME280;1571;52.524;14.104;2023-05-23T02:19:11;100590.31;;;13.05;83.22
3122;BME280;1571;52.524;14.104;2023-05-23T02:21:39;100591.63;;;12.75;84.00
3122;BME280;1571;52.524;14.104;2023-05-23T02:24:07;100590.97;;;12.84;84.62
3122;BME280;1571;52.524;14.104;2023-05-23T02:26:36;100580.44;;;12.94;83.71
3122;BME280;1571;52.524;14.104;2023-05-23T02:29:04;100584.94;;;12.94;83.25
3122;BME280;1571;52.524;14.104;2023-05-23T02:31:33;100571.66;;;12.81;83.11
3122;BME280;1571;52.524;14.104;2023-05-23T02:34:01;100573.88;;;12.87;83.21
3122;BME280;1571;52.524;14.104;2023-05-23T02:36:31;100568.09;;;12.93;81.86
3122;BME280;1571;52.524;14.104;2023-05-23T02:39:00;100567.66;;;12.99;81.92
3122;BME280;1571;52.524;14.104;2023-05-23T02:41:28;100568.88;;;13.06;81.44
3122;BME280;1571;52.524;14.104;2023-05-23T02:43:57;100563.94;;;13.13;81.06
3122;BME280;1571;52.524;14.104;2023-05-23T02:46:26;100568.00;;;13.30;80.27
3122;BME280;1571;52.524;14.104;2023-05-23T02:48:54;100580.50;;;13.05;81.13
3122;BME280;1571;52.524;14.104;2023-05-23T02:51:23;100574.31;;;13.29;81.93
3122;BME280;1571;52.524;14.104;2023-05-23T02:53:52;100571.53;;;13.42;81.42
3122;BME280;1571;52.524;14.104;2023-05-23T02:56:21;100562.47;;;13.44;80.34
3122;BME280;1571;52.524;14.104;2023-05-23T02:58:49;100557.53;;;13.16;80.74
3122;BME280;1571;52.524;14.104;2023-05-23T03:01:18;100556.66;;;13.04;81.73
3122;BME280;1571;52.524;14.104;2023-05-23T03:03:46;100556.47;;;12.94;81.26
3122;BME280;1571;52.524;14.104;2023-05-23T03:06:15;100557.97;;;13.09;81.75
3122;BME280;1571;52.524;14.104;2023-05-23T03:08:44;100565.16;;;13.20;81.83
3122;BME280;1571;52.524;14.104;2023-05-23T03:11:13;100564.53;;;13.17;81.20
3122;BME280;1571;52.524;14.104;2023-05-23T03:13:43;100568.22;;;13.27;81.32
3122;BME280;1571;52.524;14.104;2023-05-23T03:16:11;100565.50;;;13.40;80.99
3122;BME280;1571;52.524;14.104;2023-05-23T03:18:40;100567.81;;;13.09;82.54
3122;BME280;1571;52.524;14.104;2023-05-23T03:21:08;100566.34;;;12.81;83.56
3122;BME280;1571;52.524;14.104;2023-05-23T03:23:36;100574.56;;;13.02;84.56
3122;BME280;1571;52.524;14.104;2023-05-23T03:26:05;100559.38;;;12.91;84.42
3122;BME280;1571;52.524;14.104;2023-05-23T03:28:35;100565.66;;;13.25;84.71
3122;BME280;1571;52.524;14.104;2023-05-23T03:31:04;100559.50;;;13.25;84.71
3122;BME280;1571;52.524;14.104;2023-05-23T03:33:32;100557.34;;;13.30;83.93
3122;BME280;1571;52.524;14.104;2023-05-23T03:36:03;100562.47;;;13.44;84.02
3122;BME280;1571;52.524;14.104;2023-05-23T03:38:32;100550.47;;;13.50;83.26
3122;BME280;1571;52.524;14.104;2023-05-23T03:41:00;100551.28;;;13.28;82.15
3122;BME280;1571;52.524;14.104;2023-05-23T03:43:30;100553.00;;;13.29;82.30
3122;BME280;1571;52.524;14.104;2023-05-23T03:46:00;100549.03;;;13.10;83.31
3122;BME280;1571;52.524;14.104;2023-05-23T03:48:29;100539.66;;;13.29;84.59
3122;BME280;1571;52.524;14.104;2023-05-23T03:50:57;100538.69;;;13.30;82.52
3122;BME280;1571;52.524;14.104;2023-05-23T03:53:26;100537.75;;;13.53;82.00
3122;BME280;1571;52.524;14.104;2023-05-23T03:55:54;100538.84;;;13.40;81.81
3122;BME280;1571;52.524;14.104;2023-05-23T03:58:22;100531.69;;;13.51;82.15
3122;BME280;1571;52.524;14.104;2023-05-23T04:00:56;100536.03;;;13.41;82.36
3122;BME280;1571;52.524;14.104;2023-05-23T04:03:29;100539.69;;;13.40;81.78
3122;BME280;1571;52.524;14.104;2023-05-23T04:06:01;100529.88;;;13.63;81.55
3122;BME280;1571;52.524;14.104;2023-05-23T04:08:29;100536.78;;;13.54;81.17
3122;BME280;1571;52.524;14.104;2023-05-23T04:11:00;100533.66;;;13.72;81.83
3122;BME280;1571;52.524;14.104;2023-05-23T04:13:33;100540.19;;;13.79;81.49
3122;BME280;1571;52.524;14.104;2023-05-23T04:16:02;100529.88;;;13.86;81.74
3122;BME280;1571;52.524;14.104;2023-05-23T04:18:33;100537.88;;;13.74;82.50
3122;BME280;1571;52.524;14.104;2023-05-23T04:21:06;100545.00;;;13.40;82.45
3122;BME280;1571;52.524;14.104;2023-05-23T04:23:39;100554.00;;;13.62;82.37
3122;BME280;1571;52.524;14.104;2023-05-23T04:26:07;100542.38;;;13.97;81.85
3122;BME280;1571;52.524;14.104;2023-05-23T04:28:43;100551.81;;;14.12;81.94
3122;BME280;1571;52.524;14.104;2023-05-23T04:31:12;100547.56;;;14.09;80.81
3122;BME280;1571;52.524;14.104;2023-05-23T04:33:43;100556.81;;;13.94;81.05
3122;BME280;1571;52.524;14.104;2023-05-23T04:36:11;100553.78;;;13.99;82.62
3122;BME280;1571;52.524;14.104;2023-05-23T04:38:44;100555.94;;;14.05;81.10
3122;BME280;1571;52.524;14.104;2023-05-23T04:41:12;100559.84;;;14.01;80.20
3122;BME280;1571;52.524;14.104;2023-05-23T04:43:50;100563.34;;;14.12;80.87
3122;BME280;1571;52.524;14.104;2023-05-23T04:46:26;100560.06;;;14.20;81.31
3122;BME280;1571;52.524;14.104;2023-05-23T04:49:09;100559.56;;;14.15;83.12
3122;BME280;1571;52.524;14.104;2023-05-23T04:51:39;100556.66;;;14.07;83.54
3122;BME280;1571;52.524;14.104;2023-05-23T04:54:16;100552.41;;;14.04;83.35
3122;BME280;1571;52.524;14.104;2023-05-23T04:56:44;100553.53;;;14.02;83.11
3122;BME280;1571;52.524;14.104;2023-05-23T04:59:14;100546.72;;;13.86;82.25
3122;BME280;1571;52.524;14.104;2023-05-23T05:01:42;100535.84;;;13.89;82.03
3122;BME280;1571;52.524;14.104;2023-05-23T05:04:13;100540.28;;;14.00;82.34
3122;BME280;1571;52.524;14.104;2023-05-23T05:06:43;100540.19;;;14.02;82.42
3122;BME280;1571;52.524;14.104;2023-05-23T05:09:11;100527.31;;;14.07;82.30
3122;BME280;1571;52.524;14.104;2023-05-23T05:11:41;100538.50;;;14.01;82.93
3122;BME280;1571;52.524;14.104;2023-05-23T05:14:09;100541.88;;;13.69;83.47
3122;BME280;1571;52.524;14.104;2023-05-23T05:16:37;100529.78;;;13.87;83.10
3122;BME280;1571;52.524;14.104;2023-05-23T05:19:06;100522.06;;;14.28;82.18
3122;BME280;1571;52.524;14.104;2023-05-23T05:21:36;100522.03;;;14.39;81.72
3122;BME280;1571;52.524;14.104;2023-05-23T05:24:04;100514.59;;;14.43;81.30
3122;BME280;1571;52.524;14.104;2023-05-23T05:26:35;100512.66;;;14.45;82.17
3122;BME280;1571;52.524;14.104;2023-05-23T05:29:04;100501.03;;;14.46;81.53
3122;BME280;1571;52.524;14.104;2023-05-23T05:31:32;100500.28;;;14.55;81.44
3122;BME280;1571;52.524;14.104;2023-05-23T05:34:02;100512.16;;;14.62;81.73
3122;BME280;1571;52.524;14.104;2023-05-23T05:36:31;100500.75;;;14.81;81.59
3122;BME280;1571;52.524;14.104;2023-05-23T05:39:03;100502.91;;;14.66;81.42
3122;BME280;1571;52.524;14.104;2023-05-23T05:41:32;100495.22;;;14.73;82.14
3122;BME280;1571;52.524;14.104;2023-05-23T05:44:01;100502.66;;;14.69;81.73
3122;BME280;1571;52.524;14.104;2023-05-23T05:46:29;100501.44;;;14.94;81.45
3122;BME280;1571;52.524;14.104;2023-05-23T05:48:57;100504.94;;;14.95;81.21
3122;BME280;1571;52.524;14.104;2023-05-23T05:51:26;100506.72;;;14.85;80.68
3122;BME280;1571;52.524;14.104;2023-05-23T05:53:55;100503.59;;;14.80;80.88
3122;BME280;1571;52.524;14.104;2023-05-23T05:56:25;100510.78;;;14.68;80.97
3122;BME280;1571;52.524;14.104;2023-05-23T05:58:54;100517.00;;;14.68;80.42
3122;BME280;1571;52.524;14.104;2023-05-23T06:01:23;100524.19;;;14.45;81.19
3122;BME280;1571;52.524;14.104;2023-05-23T06:03:52;100526.69;;;14.69;80.06
3122;BME280;1571;52.524;14.104;2023-05-23T06:06:21;100531.16;;;14.80;80.07
3122;BME280;1571;52.524;14.104;2023-05-23T06:08:50;100529.31;;;14.81;80.59
3122;BME280;1571;52.524;14.104;2023-05-23T06:11:18;100528.44;;;14.91;81.02
3122;BME280;1571;52.524;14.104;2023-05-23T06:13:47;100531.94;;;14.92;80.85
3122;BME280;1571;52.524;14.104;2023-05-23T06:16:16;100536.06;;;14.96;80.54
3122;BME280;1571;52.524;14.104;2023-05-23T06:18:45;100535.28;;;15.05;80.00
3122;BME280;1571;52.524;14.104;2023-05-23T06:21:14;100541.56;;;15.15;79.23
3122;BME280;1571;52.524;14.104;2023-05-23T06:23:42;100535.13;;;14.86;79.92
3122;BME280;1571;52.524;14.104;2023-05-23T06:26:11;100553.97;;;14.84;80.10
3122;BME280;1571;52.524;14.104;2023-05-23T06:28:39;100552.16;;;14.85;80.18
3122;BME280;1571;52.524;14.104;2023-05-23T06:31:08;100560.84;;;14.98;80.00
3122;BME280;1571;52.524;14.104;2023-05-23T06:33:37;100552.22;;;14.94;82.47
3122;BME280;1571;52.524;14.104;2023-05-23T06:36:05;100552.88;;;14.87;83.30
3122;BME280;1571;52.524;14.104;2023-05-23T06:38:33;100549.19;;;14.88;83.34
3122;BME280;1571;52.524;14.104;2023-05-23T06:41:02;100548.38;;;14.87;82.90
3122;BME280;1571;52.524;14.104;2023-05-23T06:43:34;100548.84;;;15.13;83.22
3122;BME280;1571;52.524;14.104;2023-05-23T06:46:15;100533.31;;;15.07;82.40
3122;BME280;1571;52.524;14.104;2023-05-23T06:48:43;100537.63;;;15.19;83.45
3122;BME280;1571;52.524;14.104;2023-05-23T06:51:11;100533.47;;;15.27;84.16
3122;BME280;1571;52.524;14.104;2023-05-23T06:53:41;100523.91;;;15.13;83.65
3122;BME280;1571;52.524;14.104;2023-05-23T06:56:09;100521.56;;;15.19;83.61
3122;BME280;1571;52.524;14.104;2023-05-23T06:58:49;100517.28;;;15.07;83.49
3122;BME280;1571;52.524;14.104;2023-05-23T07:01:18;100522.13;;;15.13;83.43
3122;BME280;1571;52.524;14.104;2023-05-23T07:03:48;100523.53;;;15.17;83.84
3122;BME280;1571;52.524;14.104;2023-05-23T07:06:16;100530.31;;;15.01;84.38
3122;BME280;1571;52.524;14.104;2023-05-23T07:08:45;100526.53;;;15.03;86.69
3122;BME280;1571;52.524;14.104;2023-05-23T07:11:15;100520.34;;;15.03;87.50
3122;BME280;1571;52.524;14.104;2023-05-23T07:13:48;100522.22;;;14.58;90.58
3122;BME280;1571;52.524;14.104;2023-05-23T07:16:25;100538.53;;;14.55;92.55
3122;BME280;1571;52.524;14.104;2023-05-23T07:19:01;100526.91;;;14.77;93.38
3122;BME280;1571;52.524;14.104;2023-05-23T07:21:35;100532.34;;;14.55;94.00
3122;BME280;1571;52.524;14.104;2023-05-23T07:24:05;100533.59;;;14.72;94.80
3122;BME280;1571;52.524;14.104;2023-05-23T07:26:33;100535.28;;;14.84;95.09
3122;BME280;1571;52.524;14.104;2023-05-23T07:29:02;100539.19;;;15.01;95.06
3122;BME280;1571;52.524;14.104;2023-05-23T07:31:31;100537.94;;;14.84;95.59
3122;BME280;1571;52.524;14.104;2023-05-23T07:34:00;100528.88;;;14.75;96.25
3122;BME280;1571;52.524;14.104;2023-05-23T07:36:37;100536.53;;;14.69;95.70
3122;BME280;1571;52.524;14.104;2023-05-23T07:39:10;100521.97;;;14.94;95.95
3122;BME280;1571;52.524;14.104;2023-05-23T07:41:38;100526.81;;;15.00;96.02
3122;BME280;1571;52.524;14.104;2023-05-23T07:44:06;100530.97;;;14.93;95.46
3122;BME280;1571;52.524;14.104;2023-05-23T07:46:37;100528.16;;;14.94;96.10
3122;BME280;1571;52.524;14.104;2023-05-23T07:49:05;100534.34;;;14.95;96.76
3122;BME280;1571;52.524;14.104;2023-05-23T07:51:33;100530.13;;;15.34;96.64
3122;BME280;1571;52.524;14.104;2023-05-23T07:54:03;100537.78;;;15.49;96.26
3122;BME280;1571;52.524;14.104;2023-05-23T07:56:31;100530.09;;;15.55;95.64
3122;BME280;1571;52.524;14.104;2023-05-23T07:59:00;100530.44;;;15.41;95.46
3122;BME280;1571;52.524;14.104;2023-05-23T08:01:28;100531.03;;;15.45;95.47
3122;BME280;1571;52.524;14.104;2023-05-23T08:04:08;100542.63;;;15.55;95.25
3122;BME280;1571;52.524;14.104;2023-05-23T08:06:47;100544.84;;;15.50;95.64
3122;BME280;1571;52.524;14.104;2023-05-23T08:09:45;100553.03;;;15.58;95.09
3122;BME280;1571;52.524;14.104;2023-05-23T08:12:17;100549.97;;;15.62;95.61
3122;BME280;1571;52.524;14.104;2023-05-23T08:14:47;100546.28;;;15.54;95.58
3122;BME280;1571;52.524;14.104;2023-05-23T08:17:29;100542.66;;;15.86;96.12
3122;BME280;1571;52.524;14.104;2023-05-23T08:19:59;100542.31;;;16.10;94.82
3122;BME280;1571;52.524;14.104;2023-05-23T08:22:29;100538.13;;;16.17;92.23
3122;BME280;1571;52.524;14.104;2023-05-23T08:24:58;100547.78;;;16.68;91.31
3122;BME280;1571;52.524;14.104;2023-05-23T08:27:28;100553.31;;;16.76;90.32
3122;BME280;1571;52.524;14.104;2023-05-23T08:30:02;100548.13;;;16.84;90.61
3122;BME280;1571;52.524;14.104;2023-05-23T08:32:30;100539.75;;;17.17;88.54
3122;BME280;1571;52.524;14.104;2023-05-23T08:35:01;100546.00;;;17.08;88.04
3122;BME280;1571;52.524;14.104;2023-05-23T08:37:30;100544.06;;;17.47;84.79
3122;BME280;1571;52.524;14.104;2023-05-23T08:39:58;100545.94;;;17.37;84.05
3122;BME280;1571;52.524;14.104;2023-05-23T08:42:41;100548.78;;;17.25;85.25
3122;BME280;1571;52.524;14.104;2023-05-23T08:45:11;100551.75;;;17.13;85.03
3122;BME280;1571;52.524;14.104;2023-05-23T08:47:41;100544.16;;;17.08;84.50
3122;BME280;1571;52.524;14.104;2023-05-23T08:50:13;100549.34;;;17.39;81.73
3122;BME280;1571;52.524;14.104;2023-05-23T08:52:50;100552.41;;;17.44;81.48
3122;BME280;1571;52.524;14.104;2023-05-23T08:55:23;100564.69;;;17.46;82.94
3122;BME280;1571;52.524;14.104;2023-05-23T08:57:52;100572.31;;;17.51;82.57
3122;BME280;1571;52.524;14.104;2023-05-23T09:00:34;100580.53;;;17.50;82.02
3122;BME280;1571;52.524;14.104;2023-05-23T09:03:02;100575.44;;;17.46;82.24
3122;BME280;1571;52.524;14.104;2023-05-23T09:05:45;100574.56;;;17.65;81.60
3122;BME280;1571;52.524;14.104;2023-05-23T09:08:14;100569.47;;;17.62;80.35
3122;BME280;1571;52.524;14.104;2023-05-23T09:10:43;100563.19;;;17.91;77.30
3122;BME280;1571;52.524;14.104;2023-05-23T09:13:12;100563.75;;;17.85;76.37
3122;BME280;1571;52.524;14.104;2023-05-23T09:15:55;100565.75;;;17.83;76.83
3122;BME280;1571;52.524;14.104;2023-05-23T09:18:24;100557.13;;;18.17;75.71
3122;BME280;1571;52.524;14.104;2023-05-23T09:20:54;100564.88;;;18.47;74.06
3122;BME280;1571;52.524;14.104;2023-05-23T09:23:23;100566.25;;;18.51;73.16
3122;BME280;1571;52.524;14.104;2023-05-23T09:25:51;100568.75;;;19.17;72.54
3122;BME280;1571;52.524;14.104;2023-05-23T09:28:20;100557.34;;;19.23;69.94
3122;BME280;1571;52.524;14.104;2023-05-23T09:30:56;100568.03;;;19.59;69.76
3122;BME280;1571;52.524;14.104;2023-05-23T09:33:29;100569.84;;;19.50;68.85
3122;BME280;1571;52.524;14.104;2023-05-23T09:36:02;100580.69;;;19.40;69.41
3122;BME280;1571;52.524;14.104;2023-05-23T09:38:31;100577.09;;;19.75;66.86
3122;BME280;1571;52.524;14.104;2023-05-23T09:40:59;100584.22;;;19.41;67.78
3122;BME280;1571;52.524;14.104;2023-05-23T09:43:27;100592.41;;;19.31;66.15
3122;BME280;1571;52.524;14.104;2023-05-23T09:46:00;100596.13;;;18.94;68.86
3122;BME280;1571;52.524;14.104;2023-05-23T09:48:28;100592.81;;;19.62;66.17
3122;BME280;1571;52.524;14.104;2023-05-23T09:50:58;100586.88;;;19.76;65.27
3122;BME280;1571;52.524;14.104;2023-05-23T09:53:32;100595.75;;;19.95;65.70
3122;BME280;1571;52.524;14.104;2023-05-23T09:56:01;100587.47;;;19.88;65.70
3122;BME280;1571;52.524;14.104;2023-05-23T09:58:31;100594.19;;;19.66;63.78
3122;BME280;1571;52.524;14.104;2023-05-23T10:01:01;100590.53;;;20.02;63.11
3122;BME280;1571;52.524;14.104;2023-05-23T10:03:33;100599.50;;;20.10;63.18
3122;BME280;1571;52.524;14.104;2023-05-23T10:06:07;100594.22;;;20.27;62.77
3122;BME280;1571;52.524;14.104;2023-05-23T10:08:42;100598.63;;;20.36;62.96
3122;BME280;1571;52.524;14.104;2023-05-23T10:14:16;100602.81;;;19.26;64.92
3122;BME280;1571;52.524;14.104;2023-05-23T10:16:54;100593.53;;;20.25;64.17
3122;BME280;1571;52.524;14.104;2023-05-23T10:19:30;100581.81;;;20.50;61.45
3122;BME280;1571;52.524;14.104;2023-05-23T10:22:06;100576.75;;;20.47;60.34
3122;BME280;1571;52.524;14.104;2023-05-23T10:24:37;100568.75;;;20.88;59.12
3122;BME280;1571;52.524;14.104;2023-05-23T10:27:06;100586.47;;;20.32;59.49
3122;BME280;1571;52.524;14.104;2023-05-23T10:29:35;100584.84;;;20.47;60.60
3122;BME280;1571;52.524;14.104;2023-05-23T10:32:04;100568.06;;;20.78;59.00
3122;BME280;1571;52.524;14.104;2023-05-23T10:34:36;100576.53;;;21.08;59.21
3122;BME280;1571;52.524;14.104;2023-05-23T10:37:11;100572.66;;;21.35;59.17
3122;BME280;1571;52.524;14.104;2023-05-23T10:39:53;100552.53;;;21.70;57.66
3122;BME280;1571;52.524;14.104;2023-05-23T10:42:33;100558.13;;;21.36;57.26
3122;BME280;1571;52.524;14.104;2023-05-23T10:45:16;100554.31;;;21.86;57.72
3122;BME280;1571;52.524;14.104;2023-05-23T10:47:46;100545.59;;;22.15;56.62
3122;BME280;1571;52.524;14.104;2023-05-23T10:50:29;100543.41;;;22.19;56.45
3122;BME280;1571;52.524;14.104;2023-05-23T10:52:59;100552.50;;;21.78;57.60
3122;BME280;1571;52.524;14.104;2023-05-23T10:55:32;100546.28;;;22.26;57.18
3122;BME280;1571;52.524;14.104;2023-05-23T10:58:11;100542.47;;;22.43;56.34
3122;BME280;1571;52.524;14.104;2023-05-23T11:00:50;100559.47;;;21.56;57.20
3122;BME280;1571;52.524;14.104;2023-05-23T11:03:29;100546.19;;;22.42;56.96
3122;BME280;1571;52.524;14.104;2023-05-23T11:06:00;100557.84;;;22.03;56.77
3122;BME280;1571;52.524;14.104;2023-05-23T11:08:35;100556.25;;;21.69;56.18
3122;BME280;1571;52.524;14.104;2023-05-23T11:11:15;100558.28;;;21.34;58.23
3122;BME280;1571;52.524;14.104;2023-05-23T11:13:55;100555.94;;;21.48;58.74
3122;BME280;1571;52.524;14.104;2023-05-23T11:16:24;100537.91;;;22.43;57.13
3122;BME280;1571;52.524;14.104;2023-05-23T11:19:20;100535.81;;;22.77;56.85
3122;BME280;1571;52.524;14.104;2023-05-23T11:21:53;100528.00;;;22.82;53.84
3122;BME280;1571;52.524;14.104;2023-05-23T11:24:22;100524.22;;;22.68;53.56
3122;BME280;1571;52.524;14.104;2023-05-23T11:26:52;100523.28;;;22.76;52.42
3122;BME280;1571;52.524;14.104;2023-05-23T11:29:23;100532.47;;;22.43;52.77
3122;BME280;1571;52.524;14.104;2023-05-23T11:31:55;100527.34;;;22.17;53.51
3122;BME280;1571;52.524;14.104;2023-05-23T11:34:24;100532.81;;;22.09;53.08
3122;BME280;1571;52.524;14.104;2023-05-23T11:36:53;100534.94;;;21.82;53.80
3122;BME280;1571;52.524;14.104;2023-05-23T11:39:22;100532.41;;;22.20;53.94
3122;BME280;1571;52.524;14.104;2023-05-23T11:41:59;100525.09;;;22.60;52.25
3122;BME280;1571;52.524;14.104;2023-05-23T11:44:28;100517.28;;;22.89;51.31
3122;BME280;1571;52.524;14.104;2023-05-23T11:47:00;100533.25;;;22.21;53.27
3122;BME280;1571;52.524;14.104;2023-05-23T11:49:29;100526.50;;;22.79;52.59
3122;BME280;1571;52.524;14.104;2023-05-23T11:51:58;100527.66;;;22.54;53.01
3122;BME280;1571;52.524;14.104;2023-05-23T11:54:27;100521.53;;;22.83;52.89
3122;BME280;1571;52.524;14.104;2023-05-23T11:56:56;100520.41;;;22.77;52.24
3122;BME280;1571;52.524;14.104;2023-05-23T11:59:26;100515.84;;;22.78;52.11
3122;BME280;1571;52.524;14.104;2023-05-23T12:01:54;100522.63;;;22.74;53.62
3122;BME280;1571;52.524;14.104;2023-05-23T12:04:24;100519.94;;;23.20;52.24
3122;BME280;1571;52.524;14.104;2023-05-23T12:06:52;100522.28;;;23.53;52.35
3122;BME280;1571;52.524;14.104;2023-05-23T12:09:21;100525.84;;;23.38;51.64
3122;BME280;1571;52.524;14.104;2023-05-23T12:11:49;100526.69;;;23.01;52.66
3122;BME280;1571;52.524;14.104;2023-05-23T12:14:18;100529.31;;;22.86;53.44
3122;BME280;1571;52.524;14.104;2023-05-23T12:16:47;100531.84;;;22.64;54.23
3122;BME280;1571;52.524;14.104;2023-05-23T12:19:16;100540.06;;;22.48;54.75
3122;BME280;1571;52.524;14.104;2023-05-23T12:21:46;100534.63;;;22.56;54.29
3122;BME280;1571;52.524;14.104;2023-05-23T12:24:15;100532.66;;;22.42;54.94
3122;BME280;1571;52.524;14.104;2023-05-23T12:26:49;100528.72;;;22.76;55.21
3122;BME280;1571;52.524;14.104;2023-05-23T12:29:18;100520.94;;;23.19;54.54
3122;BME280;1571;52.524;14.104;2023-05-23T12:31:50;100523.72;;;22.87;55.39
3122;BME280;1571;52.524;14.104;2023-05-23T12:34:19;100522.97;;;22.79;55.21
3122;BME280;1571;52.524;14.104;2023-05-23T12:36:47;100535.34;;;22.42;56.77
3122;BME280;1571;52.524;14.104;2023-05-23T12:39:27;100539.59;;;22.05;58.59
3122;BME280;1571;52.524;14.104;2023-05-23T12:42:06;100538.75;;;21.49;59.19
3122;BME280;1571;52.524;14.104;2023-05-23T12:44:35;100548.34;;;21.35;59.75
3122;BME280;1571;52.524;14.104;2023-05-23T12:47:05;100560.00;;;21.03;60.22
3122;BME280;1571;52.524;14.104;2023-05-23T12:49:33;100564.38;;;20.20;65.22
3122;BME280;1571;52.524;14.104;2023-05-23T12:52:01;100592.56;;;19.11;71.63
3122;BME280;1571;52.524;14.104;2023-05-23T12:54:29;100575.91;;;17.89;80.41
3122;BME280;1571;52.524;14.104;2023-05-23T12:56:58;100576.31;;;17.37;86.59
3122;BME280;1571;52.524;14.104;2023-05-23T12:59:26;100572.38;;;17.12;92.27
3122;BME280;1571;52.524;14.104;2023-05-23T13:01:54;100565.03;;;17.14;97.31
3122;BME280;1571;52.524;14.104;2023-05-23T13:04:24;100567.28;;;17.19;100.00
3122;BME280;1571;52.524;14.104;2023-05-23T13:06:52;100568.69;;;17.13;100.00
3122;BME280;1571;52.524;14.104;2023-05-23T13:09:20;100572.94;;;17.06;100.00
3122;BME280;1571;52.524;14.104;2023-05-23T13:11:48;100567.28;;;16.99;100.00
3122;BME280;1571;52.524;14.104;2023-05-23T13:14:17;100583.41;;;16.90;100.00
3122;BME280;1571;52.524;14.104;2023-05-23T13:16:45;100575.91;;;16.83;100.00
3122;BME280;1571;52.524;14.104;2023-05-23T13:19:13;100583.34;;;16.70;100.00
3122;BME280;1571;52.524;14.104;2023-05-23T13:21:43;100576.28;;;16.69;100.00